createdAt,value
2019-04-30T00:01:25.263Z,25.13
2019-04-30T00:04:16.321Z,28.10
2019-04-30T00:06:45.433Z,27.40
2019-04-30T00:09:19.007Z,32.17
2019-04-30T00:11:50.665Z,25.87
2019-04-30T00:14:18.915Z,28.60
2019-04-30T00:16:49.840Z,26.77
2019-04-30T00:19:19.780Z,26.90
2019-04-30T00:21:56.930Z,25.67
2019-04-30T00:24:22.409Z,29.73
2019-04-30T00:26:55.016Z,24.90
2019-04-30T00:29:27.994Z,28.40
2019-04-30T00:31:57.757Z,26.70
2019-04-30T00:34:26.356Z,23.10
2019-04-30T00:36:56.244Z,18.97
2019-04-30T00:39:27.068Z,22.17
2019-04-30T00:41:57.840Z,18.70
2019-04-30T00:44:28.281Z,18.93
2019-04-30T00:47:00.656Z,19.10
2019-04-30T00:49:29.122Z,18.53
2019-04-30T00:51:58.333Z,16.97
2019-04-30T00:54:30.717Z,16.30
2019-04-30T00:57:03.769Z,13.80
2019-04-30T00:59:30.604Z,13.70
2019-04-30T01:02:30.800Z,12.43
2019-04-30T01:05:00.161Z,14.63
2019-04-30T01:07:26.568Z,11.93
2019-04-30T01:09:57.680Z,12.80
2019-04-30T01:12:29.660Z,11.17
2019-04-30T01:14:59.016Z,13.30
2019-04-30T01:17:29.858Z,12.37
2019-04-30T01:19:59.245Z,17.67
2019-04-30T01:22:32.737Z,15.73
2019-04-30T01:25:02.906Z,15.00
2019-04-30T01:27:31.596Z,16.20
2019-04-30T01:30:00.629Z,9.27
2019-04-30T01:32:29.507Z,10.00
2019-04-30T01:34:58.980Z,9.90
2019-04-30T01:37:29.587Z,12.63
2019-04-30T01:39:58.908Z,9.33
2019-04-30T01:42:30.328Z,9.23
2019-04-30T01:44:59.180Z,8.33
2019-04-30T01:47:30.789Z,8.50
2019-04-30T01:50:04.721Z,9.07
2019-04-30T01:52:51.179Z,7.17
2019-04-30T01:55:21.847Z,7.80
2019-04-30T01:58:15.864Z,8.17
2019-04-30T02:00:51.198Z,7.70
2019-04-30T02:03:20.159Z,8.80
2019-04-30T02:05:50.038Z,8.43
2019-04-30T02:08:19.496Z,9.63
2019-04-30T02:10:51.122Z,10.57
2019-04-30T02:13:19.322Z,9.67
2019-04-30T02:15:49.198Z,10.60
2019-04-30T02:18:19.499Z,13.17
2019-04-30T02:20:49.852Z,12.93
2019-04-30T02:23:19.598Z,12.60
2019-04-30T02:25:49.106Z,13.23
2019-04-30T02:28:19.011Z,11.07
2019-04-30T02:30:50.499Z,10.47
2019-04-30T02:33:20.229Z,10.77
2019-04-30T02:36:05.381Z,12.43
2019-04-30T02:38:36.366Z,14.47
2019-04-30T02:41:09.642Z,17.47
2019-04-30T02:43:41.140Z,10.60
2019-04-30T02:46:11.991Z,12.10
2019-04-30T02:48:43.024Z,12.47
2019-04-30T02:51:14.089Z,13.47
2019-04-30T02:54:23.947Z,18.10
2019-04-30T02:57:11.679Z,16.00
2019-04-30T03:00:00.059Z,11.77
2019-04-30T03:02:32.144Z,15.70
2019-04-30T03:05:02.123Z,14.90
2019-04-30T03:07:31.068Z,12.20
2019-04-30T03:10:00.129Z,18.10
2019-04-30T03:12:33.103Z,16.93
2019-04-30T03:15:00.425Z,16.50
2019-04-30T03:17:45.814Z,16.23
2019-04-30T03:20:40.262Z,13.80
2019-04-30T03:23:09.829Z,16.40
2019-04-30T03:25:40.537Z,14.50
2019-04-30T03:28:09.810Z,15.03
2019-04-30T03:30:42.062Z,13.37
2019-04-30T03:33:12.872Z,11.93
2019-04-30T03:35:46.633Z,11.33
2019-04-30T03:38:10.710Z,9.93
2019-04-30T03:40:40.603Z,15.87
2019-04-30T03:43:10.353Z,11.13
2019-04-30T03:45:40.261Z,10.00
2019-04-30T03:48:10.142Z,10.80
2019-04-30T03:50:50.286Z,9.23
2019-04-30T03:53:10.483Z,9.03
2019-04-30T03:55:39.974Z,7.77
2019-04-30T03:58:09.417Z,8.10
2019-04-30T04:00:51.405Z,6.70
2019-04-30T04:03:20.276Z,11.23
2019-04-30T04:06:11.200Z,8.13
2019-04-30T04:08:49.127Z,8.83
2019-04-30T04:11:22.698Z,8.00
2019-04-30T04:13:51.602Z,8.90
2019-04-30T04:16:20.483Z,6.33
2019-04-30T04:18:50.085Z,5.70
2019-04-30T04:21:20.691Z,6.60
2019-04-30T04:23:50.752Z,4.73
2019-04-30T04:26:20.267Z,6.40
2019-04-30T04:28:49.761Z,7.87
2019-04-30T04:31:19.465Z,6.43
2019-04-30T04:33:49.623Z,5.87
2019-04-30T04:36:20.167Z,5.70
2019-04-30T04:38:50.633Z,7.30
2019-04-30T04:41:19.956Z,5.67
2019-04-30T04:43:50.588Z,7.60
2019-04-30T04:46:20.530Z,5.70
2019-04-30T04:48:49.722Z,5.33
2019-04-30T04:51:31.320Z,5.93
2019-04-30T04:53:50.094Z,5.97
2019-04-30T04:56:19.296Z,8.43
2019-04-30T04:58:50.193Z,6.93
2019-04-30T05:01:20.448Z,7.80
2019-04-30T05:03:49.542Z,7.60
2019-04-30T05:06:21.932Z,6.30
2019-04-30T05:08:49.379Z,7.00
2019-04-30T05:11:19.222Z,7.40
2019-04-30T05:13:49.031Z,7.87
2019-04-30T05:16:19.062Z,8.63
2019-04-30T05:18:48.807Z,8.20
2019-04-30T05:21:18.788Z,6.50
2019-04-30T05:23:49.285Z,7.90
2019-04-30T05:26:19.401Z,7.93
2019-04-30T05:28:52.769Z,6.90
2019-04-30T05:31:21.111Z,6.37
2019-04-30T05:33:50.149Z,7.20
2019-04-30T05:36:19.271Z,5.17
2019-04-30T05:38:48.721Z,6.90
2019-04-30T05:41:19.263Z,6.13
2019-04-30T05:43:48.841Z,6.30
2019-04-30T05:46:19.646Z,5.90
2019-04-30T05:48:49.532Z,6.10
2019-04-30T05:51:21.179Z,5.60
2019-04-30T05:53:49.411Z,10.37
2019-04-30T05:56:19.334Z,5.50
2019-04-30T05:58:49.456Z,5.20
2019-04-30T06:01:19.620Z,7.30
2019-04-30T06:03:48.740Z,4.80
2019-04-30T06:06:19.329Z,5.10
2019-04-30T06:09:04.664Z,4.60
2019-04-30T06:11:44.853Z,4.20
2019-04-30T06:14:48.856Z,5.13
2019-04-30T06:17:19.741Z,4.90
2019-04-30T06:19:51.178Z,4.97
2019-04-30T06:22:19.624Z,4.10
2019-04-30T06:24:49.521Z,4.20
2019-04-30T06:27:19.263Z,4.07
2019-04-30T06:29:49.106Z,4.93
2019-04-30T06:32:18.760Z,3.43
2019-04-30T06:34:49.775Z,4.27
2019-04-30T06:37:19.528Z,4.47
2019-04-30T06:39:50.080Z,3.90
2019-04-30T06:42:20.197Z,3.50
2019-04-30T06:44:50.902Z,3.37
2019-04-30T06:47:32.359Z,3.73
2019-04-30T06:49:51.355Z,3.90
2019-04-30T06:52:23.549Z,4.63
2019-04-30T06:54:52.787Z,7.10
2019-04-30T06:57:21.727Z,3.47
2019-04-30T06:59:56.611Z,3.33
2019-04-30T07:02:25.483Z,3.00
2019-04-30T07:04:54.355Z,3.77
2019-04-30T07:07:36.239Z,3.77
2019-04-30T07:10:05.097Z,2.83
2019-04-30T07:12:59.082Z,3.30
2019-04-30T07:15:29.597Z,3.00
2019-04-30T07:17:59.182Z,3.13
2019-04-30T07:20:41.196Z,3.53
2019-04-30T07:23:10.129Z,4.03
2019-04-30T07:25:39.164Z,3.33
2019-04-30T07:28:09.043Z,4.30
2019-04-30T07:30:39.626Z,3.23
2019-04-30T07:33:09.532Z,3.70
2019-04-30T07:35:40.565Z,3.40
2019-04-30T07:38:12.647Z,3.40
2019-04-30T07:40:41.541Z,3.13
2019-04-30T07:43:19.318Z,4.07
2019-04-30T07:45:49.587Z,3.50
2019-04-30T07:48:26.568Z,4.17
2019-04-30T07:50:55.224Z,4.00
2019-04-30T07:53:24.124Z,6.73
2019-04-30T07:56:24.272Z,4.27
2019-04-30T07:58:39.889Z,4.33
2019-04-30T08:01:16.581Z,4.53
2019-04-30T08:04:04.660Z,4.97
2019-04-30T08:06:33.787Z,4.73
2019-04-30T08:09:03.079Z,6.23
2019-04-30T08:11:43.420Z,6.30
2019-04-30T08:14:11.656Z,4.80
2019-04-30T08:16:40.594Z,5.97
2019-04-30T08:19:19.105Z,7.23
2019-04-30T08:21:48.575Z,5.33
2019-04-30T08:24:19.359Z,19.90
2019-04-30T08:26:53.557Z,6.27
2019-04-30T08:29:22.485Z,5.13
2019-04-30T08:32:03.841Z,7.13
2019-04-30T08:34:33.715Z,7.47
2019-04-30T08:37:12.931Z,6.83
2019-04-30T08:39:39.738Z,6.77
2019-04-30T08:42:09.046Z,7.30
2019-04-30T08:44:39.598Z,7.33
2019-04-30T08:47:09.700Z,6.53
2019-04-30T08:49:46.863Z,7.27
2019-04-30T08:52:43.580Z,7.53
2019-04-30T08:55:23.433Z,7.60
2019-04-30T08:58:09.852Z,8.40
2019-04-30T09:00:39.016Z,8.80
2019-04-30T09:03:09.384Z,10.20
2019-04-30T09:06:03.969Z,11.87
2019-04-30T09:08:33.219Z,11.70
2019-04-30T09:11:02.142Z,11.60
2019-04-30T09:13:31.100Z,12.63
2019-04-30T09:16:00.006Z,12.10
2019-04-30T09:18:34.728Z,12.53
2019-04-30T09:21:06.383Z,12.17
2019-04-30T09:23:47.769Z,11.43
2019-04-30T09:26:26.201Z,13.30
2019-04-30T09:29:00.970Z,12.50
2019-04-30T09:31:29.907Z,13.20
2019-04-30T09:34:15.285Z,13.20
2019-04-30T09:36:39.127Z,11.80
2019-04-30T09:39:08.995Z,12.23
2019-04-30T09:41:46.971Z,12.40
2019-04-30T09:44:15.938Z,12.00
2019-04-30T09:46:51.949Z,13.90
2019-04-30T09:49:21.897Z,11.07
2019-04-30T09:51:59.143Z,22.07
2019-04-30T09:54:32.236Z,12.93
2019-04-30T09:57:12.000Z,11.80
2019-04-30T09:59:53.032Z,12.13
2019-04-30T10:02:22.082Z,12.67
2019-04-30T10:05:06.888Z,11.50
2019-04-30T10:07:45.043Z,12.83
2019-04-30T10:10:25.272Z,13.70
2019-04-30T10:13:27.264Z,14.03
2019-04-30T10:16:06.464Z,13.30
2019-04-30T10:19:10.294Z,13.77
2019-04-30T10:21:40.174Z,15.23
2019-04-30T10:24:13.168Z,13.77
2019-04-30T10:26:40.989Z,13.00
2019-04-30T10:29:10.044Z,13.87
2019-04-30T10:31:39.145Z,14.30
2019-04-30T10:34:11.264Z,13.57
2019-04-30T10:36:41.488Z,15.10
2019-04-30T10:39:22.756Z,14.80
2019-04-30T10:42:04.355Z,14.87
2019-04-30T10:44:46.316Z,12.37
2019-04-30T10:47:36.408Z,12.30
2019-04-30T10:50:11.557Z,15.70
2019-04-30T10:52:51.561Z,15.40
2019-04-30T10:55:21.544Z,15.73
2019-04-30T10:57:53.639Z,17.07
2019-04-30T11:00:43.197Z,15.90
2019-04-30T11:03:19.995Z,16.93
2019-04-30T11:05:42.902Z,17.63
2019-04-30T11:08:21.099Z,17.13
2019-04-30T11:10:59.132Z,15.27
2019-04-30T11:13:31.109Z,15.10
2019-04-30T11:16:11.689Z,15.97
2019-04-30T11:18:46.217Z,18.73
2019-04-30T11:21:30.694Z,17.37
2019-04-30T11:24:36.448Z,18.27
2019-04-30T11:27:04.132Z,16.13
2019-04-30T11:29:39.948Z,16.47
2019-04-30T11:32:18.792Z,16.40
2019-04-30T11:35:07.441Z,14.30
2019-04-30T11:37:36.385Z,16.00
2019-04-30T11:40:15.525Z,16.20
2019-04-30T11:42:45.946Z,18.13
2019-04-30T11:45:21.243Z,18.60
2019-04-30T11:47:56.253Z,17.43
2019-04-30T11:50:31.439Z,21.27
2019-04-30T11:53:27.565Z,16.80
2019-04-30T11:55:53.824Z,15.70
2019-04-30T11:58:22.737Z,17.13
2019-04-30T12:01:03.551Z,14.60
2019-04-30T12:03:39.672Z,14.70
2019-04-30T12:06:08.684Z,15.10
2019-04-30T12:08:39.715Z,16.10
2019-04-30T12:11:16.151Z,21.20
2019-04-30T12:13:45.188Z,20.47
2019-04-30T12:16:19.995Z,20.17
2019-04-30T12:19:09.053Z,20.10
2019-04-30T12:21:38.243Z,19.73
2019-04-30T12:24:07.138Z,18.50
2019-04-30T12:26:36.486Z,18.63
2019-04-30T12:29:26.358Z,18.40
2019-04-30T12:32:00.514Z,21.67
2019-04-30T12:34:54.833Z,17.13
2019-04-30T12:37:24.756Z,18.50
2019-04-30T12:40:10.803Z,20.37
2019-04-30T12:42:41.512Z,18.70
2019-04-30T12:45:34.534Z,17.70
2019-04-30T12:48:10.606Z,17.77
2019-04-30T12:51:02.368Z,18.77
2019-04-30T12:53:50.109Z,19.63
2019-04-30T12:56:36.581Z,19.77
2019-04-30T12:59:23.957Z,23.63
2019-04-30T13:01:52.922Z,18.30
2019-04-30T13:04:25.117Z,21.53
2019-04-30T13:06:54.706Z,25.03
2019-04-30T13:09:30.736Z,22.43
2019-04-30T13:12:16.707Z,15.20
2019-04-30T13:14:54.701Z,17.90
2019-04-30T13:17:32.477Z,20.90
2019-04-30T13:20:01.413Z,24.10
2019-04-30T13:22:36.143Z,22.00
2019-04-30T13:25:06.335Z,21.90
2019-04-30T13:27:51.199Z,21.93
2019-04-30T13:30:39.634Z,20.43
2019-04-30T13:33:24.154Z,22.27
2019-04-30T13:36:05.658Z,30.33
2019-04-30T13:38:49.551Z,18.50
2019-04-30T13:41:52.193Z,20.10
2019-04-30T13:44:25.969Z,23.03
2019-04-30T13:47:10.619Z,22.27
2019-04-30T13:49:39.490Z,22.23
2019-04-30T13:52:17.373Z,24.83
2019-04-30T13:54:46.316Z,27.73
2019-04-30T13:57:36.529Z,20.27
2019-04-30T14:00:19.696Z,23.73
2019-04-30T14:03:22.371Z,23.77
2019-04-30T14:05:56.975Z,22.80
2019-04-30T14:08:44.252Z,24.40
2019-04-30T14:11:52.581Z,24.07
2019-04-30T14:14:42.730Z,23.20
2019-04-30T14:17:14.741Z,24.90
2019-04-30T14:19:49.505Z,24.37
2019-04-30T14:22:26.341Z,27.90
2019-04-30T14:24:55.277Z,27.23
2019-04-30T14:27:24.623Z,23.57
2019-04-30T14:29:53.476Z,23.27
2019-04-30T14:32:31.472Z,26.43
2019-04-30T14:35:09.099Z,25.77
2019-04-30T14:37:43.670Z,25.03
2019-04-30T14:40:20.308Z,25.47
2019-04-30T14:43:03.059Z,26.53
2019-04-30T14:45:42.642Z,26.10
2019-04-30T14:48:23.640Z,27.07
2019-04-30T14:50:51.848Z,26.63
2019-04-30T14:53:32.040Z,29.90
2019-04-30T14:56:23.082Z,30.37
2019-04-30T14:59:25.174Z,30.07
2019-04-30T15:02:29.651Z,29.87
2019-04-30T15:04:58.805Z,32.20
2019-04-30T15:07:29.432Z,31.63
2019-04-30T15:10:05.167Z,31.03
2019-04-30T15:12:52.216Z,28.43
2019-04-30T15:15:21.213Z,30.40
2019-04-30T15:17:50.124Z,28.90
2019-04-30T15:20:55.476Z,31.00
2019-04-30T15:23:58.685Z,32.63
2019-04-30T15:26:25.228Z,31.10
2019-04-30T15:28:53.889Z,32.33
2019-04-30T15:31:35.009Z,32.83
2019-04-30T15:34:11.151Z,31.50
2019-04-30T15:36:40.672Z,34.13
2019-04-30T15:39:39.339Z,33.70
2019-04-30T15:42:09.901Z,33.10
2019-04-30T15:44:53.944Z,31.30
2019-04-30T15:47:23.320Z,33.17
2019-04-30T15:50:05.264Z,33.70
2019-04-30T15:52:52.789Z,32.90
2019-04-30T15:55:27.749Z,34.47
2019-04-30T15:58:12.560Z,39.00
2019-04-30T16:00:56.463Z,33.50
2019-04-30T16:03:42.469Z,32.47
2019-04-30T16:06:11.415Z,35.50
2019-04-30T16:08:49.556Z,33.97
2019-04-30T16:11:49.290Z,34.67
2019-04-30T16:14:35.952Z,34.43
2019-04-30T16:17:11.869Z,36.37
2019-04-30T16:19:40.787Z,35.83
2019-04-30T16:22:16.776Z,36.43
2019-04-30T16:24:54.439Z,35.80
2019-04-30T16:27:40.836Z,34.60
2019-04-30T16:30:33.986Z,35.03
2019-04-30T16:33:19.455Z,35.37
2019-04-30T16:35:50.857Z,34.50
2019-04-30T16:38:20.908Z,35.70
2019-04-30T16:41:00.730Z,37.33
2019-04-30T16:43:59.870Z,35.70
2019-04-30T16:46:49.388Z,36.07
2019-04-30T16:49:24.332Z,36.50
2019-04-30T16:52:10.535Z,37.60
2019-04-30T16:54:51.828Z,35.37
2019-04-30T16:57:39.766Z,35.27
2019-04-30T17:00:10.512Z,35.93
2019-04-30T17:02:57.564Z,33.90
2019-04-30T17:05:40.889Z,34.13
2019-04-30T17:08:39.343Z,36.50
2019-04-30T17:12:04.062Z,36.37
2019-04-30T17:15:15.365Z,35.30
2019-04-30T17:17:53.620Z,34.77
2019-04-30T17:20:25.559Z,36.20
2019-04-30T17:22:54.473Z,36.13
2019-04-30T17:25:23.358Z,37.00
2019-04-30T17:28:04.576Z,36.80
2019-04-30T17:30:42.651Z,35.30
2019-04-30T17:33:16.545Z,37.70
2019-04-30T17:35:50.816Z,37.23
2019-04-30T17:38:19.684Z,36.40
2019-04-30T17:40:59.517Z,36.50
2019-04-30T17:43:55.858Z,38.17
2019-04-30T17:46:24.744Z,36.40
2019-04-30T17:48:56.686Z,36.73
2019-04-30T17:51:25.589Z,35.40
2019-04-30T17:54:15.924Z,37.23
2019-04-30T17:56:54.202Z,37.40
2019-04-30T17:59:31.395Z,37.00
2019-04-30T18:02:02.761Z,38.63
2019-04-30T18:04:37.440Z,36.87
2019-04-30T18:07:06.602Z,37.07
2019-04-30T18:09:42.428Z,35.70
2019-04-30T18:12:11.414Z,38.53
2019-04-30T18:14:46.124Z,38.30
2019-04-30T18:17:27.372Z,37.87
2019-04-30T18:20:13.992Z,38.03
2019-04-30T18:22:56.660Z,40.30
2019-04-30T18:25:51.159Z,37.50
2019-04-30T18:28:29.248Z,37.43
2019-04-30T18:31:00.194Z,38.90
2019-04-30T18:33:37.332Z,38.37
2019-04-30T18:36:06.319Z,40.40
2019-04-30T18:38:35.111Z,37.90
2019-04-30T18:41:04.001Z,38.30
2019-04-30T18:43:32.912Z,38.03
2019-04-30T18:46:10.747Z,37.17
2019-04-30T18:48:39.932Z,38.40
2019-04-30T18:51:23.700Z,38.50
2019-04-30T18:53:40.571Z,39.87
2019-04-30T18:56:19.156Z,39.23
2019-04-30T18:58:48.647Z,39.10
2019-04-30T19:01:20.136Z,37.23
2019-04-30T19:03:54.863Z,36.43
2019-04-30T19:06:26.166Z,41.23
2019-04-30T19:09:20.341Z,40.73
2019-04-30T19:12:08.531Z,40.47
2019-04-30T19:14:44.598Z,42.80
2019-04-30T19:17:51.023Z,40.90
2019-04-30T19:20:22.980Z,42.03
2019-04-30T19:22:51.886Z,40.70
2019-04-30T19:25:24.021Z,41.93
2019-04-30T19:28:13.651Z,42.50
2019-04-30T19:30:58.391Z,41.00
2019-04-30T19:33:33.841Z,40.23
2019-04-30T19:36:10.380Z,42.43
2019-04-30T19:38:39.220Z,40.73
2019-04-30T19:41:10.639Z,41.67
2019-04-30T19:43:39.200Z,41.73
2019-04-30T19:46:19.617Z,40.70
2019-04-30T19:48:50.408Z,42.30
2019-04-30T19:51:29.629Z,42.07
2019-04-30T19:53:59.872Z,40.90
2019-04-30T19:56:30.299Z,41.20
2019-04-30T19:59:04.810Z,39.27
2019-04-30T20:01:29.944Z,39.33
2019-04-30T20:03:58.883Z,36.43
2019-04-30T20:06:28.692Z,38.40
2019-04-30T20:08:58.778Z,36.63
2019-04-30T20:11:28.389Z,38.03
2019-04-30T20:13:57.301Z,36.03
2019-04-30T20:16:35.822Z,36.20
2019-04-30T20:19:06.089Z,35.70
2019-04-30T20:21:45.673Z,36.13
2019-04-30T20:24:08.616Z,33.20
2019-04-30T20:26:37.515Z,35.10
2019-04-30T20:29:06.409Z,35.50
2019-04-30T20:31:38.540Z,36.77
2019-04-30T20:34:09.199Z,34.80
2019-04-30T20:36:39.224Z,36.10
2019-04-30T20:39:16.717Z,34.40
2019-04-30T20:41:46.476Z,35.27
2019-04-30T20:44:21.280Z,34.13
2019-04-30T20:46:50.192Z,34.53
2019-04-30T20:49:20.131Z,33.40
2019-04-30T20:51:55.619Z,32.50
2019-04-30T20:54:29.084Z,34.37
2019-04-30T20:57:08.735Z,33.27
2019-04-30T20:59:38.806Z,32.20
2019-04-30T21:02:18.768Z,33.57
2019-04-30T21:04:49.443Z,31.60
2019-04-30T21:07:19.479Z,32.80
2019-04-30T21:09:58.291Z,32.23
2019-04-30T21:12:28.795Z,32.90
2019-04-30T21:14:59.544Z,30.77
2019-04-30T21:17:37.641Z,31.70
2019-04-30T21:20:06.798Z,29.73
2019-04-30T21:22:35.696Z,31.03
2019-04-30T21:25:09.928Z,29.97
2019-04-30T21:27:47.229Z,30.40
2019-04-30T21:30:16.708Z,31.77
2019-04-30T21:33:19.716Z,31.83
2019-04-30T21:35:54.657Z,30.40
2019-04-30T21:38:23.561Z,30.77
2019-04-30T21:40:52.505Z,32.17
2019-04-30T21:43:21.480Z,31.07
2019-04-30T21:45:50.330Z,30.07
2019-04-30T21:48:19.337Z,33.60
2019-04-30T21:50:49.732Z,33.97
2019-04-30T21:53:19.556Z,33.23
2019-04-30T21:55:49.738Z,33.10
2019-04-30T21:58:29.230Z,37.70
2019-04-30T22:01:24.694Z,39.07
2019-04-30T22:03:53.777Z,41.20
2019-04-30T22:06:24.684Z,42.30
2019-04-30T22:08:53.652Z,42.43
2019-04-30T22:11:30.248Z,40.77
2019-04-30T22:13:59.199Z,38.90
2019-04-30T22:16:40.233Z,38.83
2019-04-30T22:19:09.246Z,36.73
2019-04-30T22:21:42.447Z,37.67
2019-04-30T22:24:17.659Z,35.87
2019-04-30T22:26:48.544Z,34.70
2019-04-30T22:29:39.030Z,35.80
2019-04-30T22:32:09.495Z,33.77
2019-04-30T22:34:44.737Z,36.67
2019-04-30T22:37:13.635Z,34.20
2019-04-30T22:40:09.361Z,34.97
2019-04-30T22:42:44.240Z,35.60
2019-04-30T22:45:23.221Z,35.50
2019-04-30T22:47:52.093Z,36.77
2019-04-30T22:50:21.112Z,40.67
2019-04-30T22:52:49.964Z,40.73
2019-04-30T22:55:27.672Z,42.33
2019-04-30T22:57:56.557Z,54.50
2019-04-30T23:00:34.027Z,61.93
2019-04-30T23:03:05.888Z,51.67
2019-04-30T23:05:34.865Z,45.40
2019-04-30T23:08:03.795Z,39.50
2019-04-30T23:10:32.841Z,39.43
2019-04-30T23:13:08.148Z,38.73
2019-04-30T23:15:37.257Z,39.70
2019-04-30T23:18:06.188Z,36.47
2019-04-30T23:20:35.118Z,35.80
2019-04-30T23:23:04.225Z,30.70
2019-04-30T23:25:33.109Z,34.50
2019-04-30T23:28:07.208Z,35.30
2019-04-30T23:30:36.117Z,35.33
2019-04-30T23:33:13.896Z,35.70
2019-04-30T23:35:42.816Z,32.10
2019-04-30T23:38:11.681Z,32.10
2019-04-30T23:40:49.932Z,28.47
2019-04-30T23:43:24.724Z,29.13
2019-04-30T23:45:53.627Z,28.57
2019-04-30T23:48:26.601Z,28.47
2019-04-30T23:50:55.499Z,25.90
2019-04-30T23:53:24.386Z,25.87
2019-04-30T23:55:53.363Z,27.27
2019-04-30T23:58:22.258Z,25.53
